• Join FlightAware (Why Join?)
  • Login
  • US Flag 
08:39PM EDT


 

Airport Tracker/Info


-or-


 

Live Flight TrackerFlight Track Log ✈ ASQ1354 ✈ 20-Apr-2013 ✈ KMIA - KCLE

Flight Track Log - Related Links

Times and Time Zones

All times are in EDT time to prevent confusion due to time zone crossing. See the ASQ1354 flight status page for this flight to view local times or setup timezone preferences in your user account.

Time Position Orientation Groundspeed Altitude Reporting Facility
EDT Latitude Longitude Course Direction KTS MPH feet Rate Location/Type
02:02PM 25.7981 -80.2744 83° East 163 188 700  Level Miami Center
02:03PM 25.8061 -80.1964 83° East 226 260 3,900 2,520 Climbing Miami Center
02:04PM 25.8244 -80.1322 72° East 244 281 6,400 1,680 Climbing Miami Center
02:05PM 25.8875 -80.1131 15° North 286 329 7,000 300 Climbing Miami Center
02:06PM 25.9689 -80.1200 356° North 289 333 7,000 360 Level Miami Center
02:07PM 26.0497 -80.1475 343° North 274 315 7,800 1,500 Climbing Miami Center
02:08PM 26.0586 -80.2125 279° West 289 333 10,100 2,820 Climbing Miami Center
02:08PM 26.0517 -80.2378 253° West 284 327 11,000 2,160 Climbing Miami Center
02:09PM 26.0525 -80.2978 271° West 310 357 12,300 1,800 Climbing Miami Center
02:10PM 26.1283 -80.3581 324° Northwest 336 387 14,200 1,620 Climbing Miami Center
02:11PM 26.2125 -80.4161 328° Northwest 359 413 15,600 1,320 Climbing Miami Center
02:12PM 26.2992 -80.4650 333° Northwest 376 433 16,900 1,680 Climbing Miami Center
02:13PM 26.4106 -80.5169 337° Northwest 390 449 19,000 1,920 Climbing Miami Center
02:14PM 26.4992 -80.5617 336° Northwest 390 449 20,800 960 Climbing Miami Center
02:15PM 26.6147 -80.6139 338° Northwest 397 457 21,000 60 Climbing Miami Center
02:16PM 26.7253 -80.6222 356° North 420 483 21,000  Level Miami Center
02:17PM 26.8503 -80.6308 356° North 437 503 21,000 480 Level Miami Center
02:18PM 26.9672 -80.6347 358° North 437 503 22,000 480 Climbing Miami Center
02:19PM 27.0925 -80.6386 358° North 437 503 22,000  Level Miami Center
02:20PM 27.2089 -80.6517 354° North 432 497 22,000 600 Level Miami Center
02:21PM 27.3161 -80.7044 336° Northwest 414 476 23,300 1,440 Climbing Miami Center
02:22PM 27.4211 -80.7569 336° Northwest 414 476 24,900 840 Climbing Miami Center
02:23PM 27.5283 -80.8097 336° Northwest 414 476 25,000  Climbing Miami Center
02:24PM 27.6417 -80.8678 336° Northwest 425 489 25,000  Level Miami Center
02:25PM 27.7525 -80.9278 334° Northwest 431 496 25,000  Level Miami Center
02:26PM 27.8700 -80.9861 336° Northwest 447 514 25,000  Level Miami Center
02:27PM 27.9831 -81.0442 336° Northwest 447 514 25,000  Level Miami Center
02:28PM 28.1083 -81.1100 335° Northwest 447 514 25,000  Level Miami Center
02:29PM 28.2233 -81.1708 335° Northwest 447 514 25,000  Level Miami Center
02:30PM 28.3383 -81.2319 335° Northwest 447 514 25,000  Level Miami Center
02:31PM 28.4739 -81.3008 336° Northwest 453 521 25,000  Level Jacksonville Center
02:32PM 28.5956 -81.3439 343° North 448 516 25,000  Level Jacksonville Center
02:33PM 28.7250 -81.3536 356° North 453 521 25,000  Level Jacksonville Center
02:34PM 28.8567 -81.3683 354° North 458 527 25,000  Level Jacksonville Center
02:35PM 28.9742 -81.4117 342° North 452 520 25,000  Level Jacksonville Center
02:36PM 29.0936 -81.4667 338° Northwest 452 520 25,000  Level Jacksonville Center
02:37PM 29.2153 -81.5150 341° North 452 520 25,000  Level Jacksonville Center
02:38PM 29.3328 -81.5706 338° Northwest 457 526 25,000  Level Jacksonville Center
02:39PM 29.4564 -81.6189 341° North 462 532 25,000  Level Jacksonville Center
02:40PM 29.5800 -81.6628 343° North 462 532 25,000  Level Jacksonville Center
02:41PM 29.6994 -81.7114 341° North 462 532 25,000  Level Jacksonville Center
02:42PM 29.8189 -81.7531 343° North 455 524 25,000  Level Jacksonville Center
02:43PM 29.9381 -81.7900 345° North 443 510 25,000  Level Jacksonville Center
02:44PM 30.0697 -81.7958 358° North 449 517 25,000  Level Jacksonville Center
02:45PM 30.2014 -81.8086 355° North 461 531 25,000  Level Jacksonville Center
02:46PM 30.3350 -81.8217 355° North 467 537 25,000  Level Jacksonville Center
02:47PM 30.4708 -81.8344 355° North 480 552 25,000  Level Jacksonville Center
02:48PM 30.6256 -81.8544 354° North 494 568 25,000  Level Jacksonville Center
02:49PM 30.7594 -81.8675 355° North 494 568 25,000  Level Jacksonville Center
02:50PM 30.8908 -81.8806 355° North 486 559 25,000  Level Jacksonville Center
02:51PM 31.0225 -81.8939 355° North 475 547 25,000  Level Jacksonville Center
02:52PM 31.1583 -81.9094 354° North 484 557 25,000  Level Jacksonville Center
02:53PM 31.2922 -81.9225 355° North 479 551 25,000  Level Jacksonville Center
02:54PM 31.4050 -81.9481 349° North 468 539 25,000  Level Jacksonville Center
02:55PM 31.5514 -81.9686 353° North 482 555 25,000  Level Jacksonville Center
02:56PM 31.6747 -81.9797 356° North 494 568 25,000  Level Jacksonville Center
02:57PM 31.8292 -81.9928 356° North 502 578 25,000  Level Jacksonville Center
02:59PM 32.0847 -82.0189 355° North 502 578 25,000  Level Atlanta Center
03:00PM 32.2228 -82.0306 356° North 502 578 25,000  Level Atlanta Center
03:01PM 32.3544 -82.0422 356° North 497 572 25,000  Level Atlanta Center
03:02PM 32.4756 -82.0494 357° North 486 559 25,000  Level Atlanta Center
03:03PM 32.6072 -82.0564 357° North 480 552 25,000  Level Atlanta Center
03:04PM 32.7428 -82.0483 North 480 552 25,000  Level Atlanta Center
03:05PM 32.8806 -82.0428 North 480 552 25,000  Level Atlanta Center
03:06PM 33.0139 -82.0372 North 485 558 25,000  Level Atlanta Center
03:07PM 33.1536 -82.0292 North 485 558 25,000  Level Atlanta Center
03:08PM 33.2892 -82.0233 North 490 564 25,000  Level Atlanta Center
03:09PM 33.4269 -82.0178 North 490 564 25,000  Level Atlanta Center
03:10PM 33.5644 -82.0094 North 490 564 25,000  Level Atlanta Center
03:11PM 33.7003 -82.0039 North 495 570 25,000  Level Atlanta Center
03:12PM 33.8378 -81.9981 North 495 570 25,000  Level Atlanta Center
03:13PM 33.9858 -81.9894 North 495 570 25,000  Level Atlanta Center
03:14PM 34.1256 -81.9836 North 495 570 25,000  Level Atlanta Center
03:15PM 34.2569 -81.9778 North 489 563 25,000  Level Atlanta Center
03:16PM 34.3947 -81.9694 North 489 563 25,000  Level Atlanta Center
03:17PM 34.5258 -81.9636 North 478 550 25,000  Level Atlanta Center
03:18PM 34.6553 -81.9606 North 473 544 25,000  Level Atlanta Center
03:19PM 34.7844 -81.9522 North 468 539 25,000  Level Atlanta Center
03:20PM 34.9139 -81.9467 North 457 526 25,000  Level Atlanta Center
03:21PM 35.0286 -81.9461 360° North 456 525 25,000  Level Atlanta Center
03:22PM 35.1683 -81.9375 North 456 525 25,000  Level Atlanta Center
03:23PM 35.2975 -81.9292 North 461 531 25,000  Level Atlanta Center
03:24PM 35.4289 -81.9233 North 461 531 25,000  Level Atlanta Center
03:25PM 35.5622 -81.9172 North 469 540 25,000  Level Atlanta Center
03:26PM 35.6956 -81.9086 North 469 540 25,000  Level Atlanta Center
03:27PM 35.8269 -81.9028 North 473 544 25,000  Level Atlanta Center
03:28PM 35.9478 -81.8969 North 473 544 25,000  Level Atlanta Center
03:29PM 36.0772 -81.9011 359° North 473 544 25,000  Level Atlanta Center
03:30PM 36.2067 -81.9056 358° North 467 537 25,000  Level Atlanta Center
03:32PM 36.5297 -81.9214 358° North 466 536 25,000  Level Indianapolis Center
03:33PM 36.6589 -81.9281 358° North 465 535 25,000  Level Indianapolis Center
03:34PM 36.7889 -81.9350 358° North 468 539 25,000  Level Indianapolis Center
03:35PM 36.9189 -81.9417 358° North 467 537 25,000  Level Indianapolis Center
03:36PM 37.0686 -81.9492 358° North 464 534 25,000  Level Indianapolis Center
03:37PM 37.1981 -81.9558 358° North 464 534 25,000  Level Indianapolis Center
03:38PM 37.3267 -81.9622 358° North 462 532 25,000  Level Indianapolis Center
03:39PM 37.4564 -81.9681 358° North 465 535 25,000  Level Indianapolis Center
03:40PM 37.5858 -81.9750 358° North 465 535 25,000  Level Indianapolis Center
03:41PM 37.7144 -81.9819 358° North 462 532 25,000  Level Indianapolis Center
03:43PM 37.8522 -81.9889 358° North 466 536 25,000  Level Indianapolis Center
03:44PM 37.9819 -81.9942 358° North 465 535 25,000  Level Indianapolis Center
03:45PM 38.1117 -82.0017 357° North 466 536 25,000  Level Indianapolis Center
03:46PM 38.2406 -82.0075 358° North 463 533 25,000  Level Indianapolis Center
03:47PM 38.3725 -82.0156 357° North 469 540 25,000  Level Indianapolis Center
03:48PM 38.5042 -82.0214 358° North 469 540 25,000  Level Indianapolis Center
03:49PM 38.6336 -82.0283 358° North 461 531 25,000  Level Indianapolis Center
03:50PM 38.7867 -82.0367 358° North 455 524 25,000  Level Indianapolis Center
03:51PM 38.9142 -82.0444 357° North 454 522 25,000  Level Indianapolis Center
03:52PM 39.0417 -82.0508 358° North 455 524 25,000  Level Indianapolis Center
03:53PM 39.1703 -82.0547 359° North 458 527 25,000  Level Indianapolis Center
03:54PM 39.3003 -82.0489 North 462 532 25,000 -360 Level Indianapolis Center
03:55PM 39.4272 -82.0472 North 456 525 24,300 -540 Descending Indianapolis Center
03:56PM 39.5547 -82.0431 North 457 526 24,000 -180 Descending Indianapolis Center
03:57PM 39.6819 -82.0397 North 456 525 24,000  Level Indianapolis Center
03:58PM 39.8222 -82.0364 North 452 520 24,000 -60 Level Indianapolis Center
03:59PM 39.9506 -82.0325 North 456 525 23,900 -600 Descending Indianapolis Center
04:00PM 40.0764 -82.0300 North 450 518 22,800 -1,200 Descending Indianapolis Center
04:01PM 40.2000 -82.0264 North 441 507 21,500 -1,440 Descending Indianapolis Center
04:02PM 40.3172 -82.0242 North 428 493 19,900 -1,740 Descending Indianapolis Center
04:03PM 40.4350 -82.0206 North 421 484 18,000 -1,740 Descending Indianapolis Center
04:03PM 40.4750 -82.0214 359° North 415 478 17,700 -1,680 Descending Cleveland Center
04:04PM 40.5858 -81.9967 10° North 402 463 15,900 -1,920 Descending Cleveland Center
04:05PM 40.6786 -81.9081 36° Northeast 392 451 13,900 -1,980 Descending Cleveland Center
04:06PM 40.7672 -81.8194 37° Northeast 392 451 12,000 -1,920 Descending Cleveland Center
04:07PM 40.8239 -81.7658 36° Northeast 388 447 10,700 -1,740 Descending Cleveland Center
04:07PM 40.8492 -81.7386 39° Northeast 387 445 10,300 -1,140 Descending Cleveland Center
04:08PM 40.8767 -81.7117 37° Northeast 370 426 10,000 -300 Descending Cleveland Center
04:08PM 40.9314 -81.6550 38° Northeast 375 432 10,000  Level Cleveland Center
04:09PM 40.9608 -81.6308 32° Northeast 367 422 10,000  Level Cleveland Center
04:09PM 41.0150 -81.6289 North 347 399 10,000  Level Cleveland Center
04:10PM 41.0567 -81.6433 345° North 337 388 10,000  Level Cleveland Center
04:10PM 41.1086 -81.6469 357° North 330 380 10,000  Level Cleveland Center
04:11PM 41.1336 -81.6528 350° North 316 364 10,000 -1,200 Level Cleveland Center
04:11PM 41.1856 -81.6592 355° North 307 353 8,800 -2,280 Descending Cleveland Center
04:12PM 41.2211 -81.6653 353° North 245 282 7,500 -2,640 Descending Cleveland Center
04:12PM 41.2564 -81.6714 353° North 270 311 6,200 -2,100 Descending Cleveland Center
04:13PM 41.2939 -81.6775 353° North 267 307 5,400 -2,040 Descending Cleveland Center
04:13PM 41.3356 -81.6864 351° North 260 299 4,200 -2,160 Descending Cleveland Center
04:14PM 41.3564 -81.6925 348° North 251 289 3,500 -1,200 Descending Cleveland Center
04:14PM 41.3981 -81.6986 354° North 242 278 3,000 -540 Descending Cleveland Center
04:15PM 41.4311 -81.7103 345° North 203 234 2,900 -240 Descending Cleveland Center